Time;durP1;ratioP1;P1;durP2;ratioP2;P2;SDS_P1;SDS_P2;PMS_P1;PMS_P2;Temp;Humidity;BMP_temperature;BMP_pressure;BME280_temperature;BME280_humidity;BME280_pressure;Samples;Min_cycle;Max_cycle;Signal;HPM_P1;HPM_P2
2020/12/23 00:02:22;;;;;;;31.35;10.82;;;;;;;;;;5112791;28;20399;-18
2020/12/23 00:04:47;;;;;;;32.45;12.38;;;;;;;;;;5112608;28;20492;-19
2020/12/23 00:07:15;;;;;;;29.95;10.35;;;;;;;;;;5112900;28;20500;-17
2020/12/23 00:09:44;;;;;;;34.42;13.38;;;;;;;;;;5112444;28;20031;-18
2020/12/23 00:12:10;;;;;;;24.55;10.32;;;;;;;;;;5112709;28;20015;-18
2020/12/23 00:14:35;;;;;;;31.52;11.07;;;;;;;;;;5112542;28;20023;-18
2020/12/23 00:17:01;;;;;;;26.60;9.32;;;;;;;;;;5112799;28;20065;-19
2020/12/23 00:19:26;;;;;;;24.67;10.32;;;;;;;;;;5112909;28;20019;-18
2020/12/23 00:21:52;;;;;;;27.00;9.95;;;;;;;;;;5112384;28;20027;-19
2020/12/23 00:24:17;;;;;;;30.05;12.43;;;;;;;;;;5112622;28;20149;-19
2020/12/23 00:26:46;;;;;;;25.63;10.48;;;;;;;;;;5112599;28;20015;-18
2020/12/23 00:29:12;;;;;;;25.58;10.43;;;;;;;;;;5112529;28;20031;-19
2020/12/23 00:31:37;;;;;;;27.80;10.80;;;;;;;;;;5112444;28;20032;-18
2020/12/23 00:34:03;;;;;;;24.23;10.23;;;;;;;;;;5112369;28;20031;-18
2020/12/23 00:36:28;;;;;;;32.40;11.93;;;;;;;;;;5112436;28;20015;-18
2020/12/23 00:38:54;;;;;;;26.23;10.40;;;;;;;;;;5112276;28;20047;-18
2020/12/23 00:41:19;;;;;;;27.23;11.25;;;;;;;;;;5111132;28;20126;-18
2020/12/23 00:43:44;;;;;;;26.67;10.45;;;;;;;;;;5112180;28;20054;-18
2020/12/23 00:46:11;;;;;;;30.00;11.50;;;;;;;;;;5111029;28;20065;-17
2020/12/23 00:48:37;;;;;;;26.88;11.52;;;;;;;;;;5110863;28;20084;-18
2020/12/23 00:51:06;;;;;;;29.23;11.00;;;;;;;;;;5112155;28;20456;-19
2020/12/23 00:53:32;;;;;;;26.85;10.82;;;;;;;;;;5111070;28;20655;-18
2020/12/23 00:55:57;;;;;;;24.05;10.70;;;;;;;;;;5110791;28;20020;-18
2020/12/23 00:58:23;;;;;;;25.65;10.32;;;;;;;;;;5112123;28;20024;-19
2020/12/23 01:00:48;;;;;;;25.85;10.40;;;;;;;;;;5112194;28;20051;-18
2020/12/23 01:03:14;;;;;;;26.10;11.18;;;;;;;;;;5114001;28;20031;-18
2020/12/23 01:05:39;;;;;;;28.50;10.63;;;;;;;;;;5115963;28;20104;-19
2020/12/23 01:08:05;;;;;;;27.13;10.85;;;;;;;;;;5115789;28;20137;-18
2020/12/23 01:10:30;;;;;;;29.35;11.20;;;;;;;;;;5115637;28;20027;-17
2020/12/23 01:12:55;;;;;;;30.08;10.20;;;;;;;;;;5115895;28;20092;-18
2020/12/23 01:15:21;;;;;;;25.77;9.95;;;;;;;;;;5115902;28;20080;-18
2020/12/23 01:17:46;;;;;;;24.13;10.23;;;;;;;;;;5115492;28;20034;-18
2020/12/23 01:20:11;;;;;;;27.27;10.73;;;;;;;;;;5115523;28;20049;-18
2020/12/23 01:22:37;;;;;;;29.38;10.40;;;;;;;;;;5115331;28;20032;-18
2020/12/23 01:25:02;;;;;;;30.95;11.70;;;;;;;;;;5115693;28;20077;-20
2020/12/23 01:27:28;;;;;;;26.27;10.60;;;;;;;;;;5115607;28;20020;-18
2020/12/23 01:29:53;;;;;;;26.80;11.13;;;;;;;;;;5115249;28;20054;-19
2020/12/23 01:32:19;;;;;;;30.60;10.93;;;;;;;;;;5097091;28;20023;-18
2020/12/23 01:34:44;;;;;;;25.85;10.27;;;;;;;;;;5113926;28;20112;-19
2020/12/23 01:37:09;;;;;;;27.27;11.60;;;;;;;;;;5115237;28;20046;-18
2020/12/23 01:39:35;;;;;;;29.15;10.65;;;;;;;;;;5115066;28;20020;-19
2020/12/23 01:42:00;;;;;;;29.10;11.55;;;;;;;;;;5115374;28;20032;-18
2020/12/23 01:44:26;;;;;;;31.38;11.13;;;;;;;;;;5115124;28;20531;-18
2020/12/23 01:46:51;;;;;;;26.42;10.38;;;;;;;;;;5114868;28;20027;-19
2020/12/23 01:49:18;;;;;;;28.55;10.80;;;;;;;;;;5115038;28;20462;-18
2020/12/23 01:51:43;;;;;;;24.45;10.50;;;;;;;;;;5114577;28;20513;-18
2020/12/23 01:54:12;;;;;;;25.60;9.40;;;;;;;;;;5113583;28;20031;-17
2020/12/23 01:56:40;;;;;;;27.75;11.32;;;;;;;;;;5114680;28;20032;-18
2020/12/23 01:59:06;;;;;;;24.92;10.57;;;;;;;;;;5113560;28;20043;-18
2020/12/23 02:01:35;;;;;;;23.38;8.85;;;;;;;;;;5114697;28;20066;-17
2020/12/23 02:04:01;;;;;;;23.45;9.07;;;;;;;;;;5113401;28;20020;-18
2020/12/23 02:06:27;;;;;;;25.63;10.02;;;;;;;;;;5113364;28;20028;-18
2020/12/23 02:08:53;;;;;;;27.00;10.45;;;;;;;;;;5114479;28;20093;-18
2020/12/23 02:11:19;;;;;;;28.02;10.45;;;;;;;;;;5114752;28;20061;-18
2020/12/23 02:13:45;;;;;;;21.35;9.40;;;;;;;;;;5114501;28;20420;-17
2020/12/23 02:16:13;;;;;;;23.55;9.93;;;;;;;;;;5096149;28;20110;-18
2020/12/23 02:18:39;;;;;;;25.60;10.23;;;;;;;;;;5113101;28;20016;-18
2020/12/23 02:21:05;;;;;;;25.08;8.45;;;;;;;;;;5113172;28;20034;-17
2020/12/23 02:23:30;;;;;;;23.10;8.95;;;;;;;;;;5114374;28;20015;-18
2020/12/23 02:25:56;;;;;;;23.58;9.27;;;;;;;;;;5114476;27;20439;-18
2020/12/23 02:28:22;;;;;;;29.75;8.93;;;;;;;;;;5114175;28;20023;-18
2020/12/23 02:30:57;;;;;;;22.48;9.63;;;;;;;;;;5114080;28;20031;-19
2020/12/23 02:33:23;;;;;;;31.15;11.30;;;;;;;;;;5114428;28;20085;-18
2020/12/23 02:35:48;;;;;;;21.30;9.10;;;;;;;;;;5112792;28;20454;-18
2020/12/23 02:38:13;;;;;;;24.40;9.25;;;;;;;;;;5114042;28;20458;-18
2020/12/23 02:40:39;;;;;;;22.10;8.70;;;;;;;;;;5112701;28;20367;-18
2020/12/23 02:43:04;;;;;;;24.75;10.30;;;;;;;;;;5114204;28;20519;-18
2020/12/23 02:45:30;;;;;;;21.05;9.73;;;;;;;;;;5112554;28;20022;-18
2020/12/23 02:47:55;;;;;;;22.42;9.40;;;;;;;;;;5113814;28;20055;-19
2020/12/23 02:50:21;;;;;;;20.90;9.55;;;;;;;;;;5112197;28;20089;-18
2020/12/23 02:52:46;;;;;;;33.50;10.45;;;;;;;;;;5113740;28;20061;-18
2020/12/23 02:55:11;;;;;;;24.60;9.35;;;;;;;;;;5114063;28;20023;-17
2020/12/23 02:57:37;;;;;;;22.65;9.40;;;;;;;;;;5112486;28;20125;-19
2020/12/23 03:00:03;;;;;;;20.30;9.15;;;;;;;;;;5113643;28;20026;-24
2020/12/23 03:02:29;;;;;;;25.27;9.68;;;;;;;;;;5113588;28;20438;-17
2020/12/23 03:04:54;;;;;;;30.60;12.45;;;;;;;;;;5113712;28;20024;-19
2020/12/23 03:07:20;;;;;;;27.23;10.45;;;;;;;;;;5113486;28;20386;-19
2020/12/23 03:09:45;;;;;;;24.80;10.30;;;;;;;;;;5113529;28;20446;-18
2020/12/23 03:12:10;;;;;;;22.23;9.07;;;;;;;;;;5112062;28;20031;-18
2020/12/23 03:14:36;;;;;;;20.90;9.82;;;;;;;;;;5113550;28;20047;-19
2020/12/23 03:17:01;;;;;;;31.80;11.23;;;;;;;;;;5113241;28;20047;-19
2020/12/23 03:19:27;;;;;;;22.25;9.50;;;;;;;;;;5113535;28;20016;-18
2020/12/23 03:21:52;;;;;;;24.65;9.55;;;;;;;;;;5111856;28;20114;-20
2020/12/23 03:24:17;;;;;;;22.48;9.07;;;;;;;;;;5111962;28;20454;-19
2020/12/23 03:26:43;;;;;;;20.13;9.10;;;;;;;;;;5112333;28;20030;-19
2020/12/23 03:29:08;;;;;;;19.23;8.68;;;;;;;;;;5113133;28;20019;-18
2020/12/23 03:31:34;;;;;;;20.80;8.43;;;;;;;;;;5113028;28;20035;-18
2020/12/23 03:34:00;;;;;;;23.88;9.63;;;;;;;;;;5112883;28;20019;-17
2020/12/23 03:36:25;;;;;;;19.98;9.15;;;;;;;;;;5113198;28;20031;-18
2020/12/23 03:38:51;;;;;;;27.10;10.15;;;;;;;;;;5113237;28;20027;-18
2020/12/23 03:41:16;;;;;;;25.65;11.05;;;;;;;;;;5111971;28;20027;-18
2020/12/23 03:43:42;;;;;;;25.02;10.35;;;;;;;;;;5112898;28;20023;-19
2020/12/23 03:46:07;;;;;;;23.98;10.23;;;;;;;;;;5112951;28;20024;-18
2020/12/23 03:48:33;;;;;;;28.55;10.48;;;;;;;;;;5112852;28;20016;-18
2020/12/23 03:50:58;;;;;;;18.92;8.18;;;;;;;;;;5111243;28;20048;-19
2020/12/23 03:53:24;;;;;;;23.42;9.80;;;;;;;;;;5112879;28;20028;-19
2020/12/23 03:55:49;;;;;;;24.83;10.43;;;;;;;;;;5112696;28;20019;-19
2020/12/23 03:58:15;;;;;;;25.92;10.90;;;;;;;;;;5112987;28;20011;-18
2020/12/23 04:00:40;;;;;;;28.02;10.40;;;;;;;;;;5112803;28;20081;-19
2020/12/23 04:03:06;;;;;;;24.73;10.60;;;;;;;;;;5112889;28;20011;-19
2020/12/23 04:05:31;;;;;;;30.08;11.38;;;;;;;;;;5112809;28;20028;-19
2020/12/23 04:07:56;;;;;;;21.17;9.70;;;;;;;;;;5112811;28;20026;-20
2020/12/23 04:10:22;;;;;;;21.70;9.05;;;;;;;;;;5112596;28;20455;-19
2020/12/23 04:12:47;;;;;;;30.50;11.57;;;;;;;;;;5112632;28;20020;-19
2020/12/23 04:15:13;;;;;;;25.52;10.98;;;;;;;;;;5112603;28;20036;-19
2020/12/23 04:17:38;;;;;;;23.85;9.80;;;;;;;;;;5112565;28;20016;-18
2020/12/23 04:20:05;;;;;;;23.65;10.45;;;;;;;;;;5113150;28;20039;-18
2020/12/23 04:22:30;;;;;;;25.20;11.55;;;;;;;;;;5111269;28;20065;-19
2020/12/23 04:24:57;;;;;;;23.35;10.05;;;;;;;;;;5112471;28;20431;-19
2020/12/23 04:27:22;;;;;;;18.75;8.75;;;;;;;;;;5111213;28;20233;-19
2020/12/23 04:29:48;;;;;;;25.25;11.27;;;;;;;;;;5111116;28;20114;-19
2020/12/23 04:32:13;;;;;;;25.02;11.05;;;;;;;;;;5112420;28;20027;-19
2020/12/23 04:34:39;;;;;;;24.95;10.43;;;;;;;;;;5112371;28;20119;-19
2020/12/23 04:37:04;;;;;;;27.20;10.38;;;;;;;;;;5114335;28;20027;-19
2020/12/23 04:39:29;;;;;;;29.65;11.25;;;;;;;;;;5116414;28;20517;-19
2020/12/23 04:41:55;;;;;;;24.33;9.90;;;;;;;;;;5116178;28;20015;-19
2020/12/23 04:44:21;;;;;;;24.15;10.10;;;;;;;;;;5116507;28;20034;-18
2020/12/23 04:46:46;;;;;;;23.38;9.50;;;;;;;;;;5116051;28;20015;-18
2020/12/23 04:49:11;;;;;;;26.73;10.15;;;;;;;;;;5116244;28;20031;-18
2020/12/23 04:51:38;;;;;;;22.65;10.10;;;;;;;;;;5116066;28;20047;-19
2020/12/23 04:54:04;;;;;;;22.55;10.15;;;;;;;;;;5116149;28;20024;-18
2020/12/23 04:56:31;;;;;;;24.60;9.57;;;;;;;;;;5116362;27;20417;-19
2020/12/23 04:58:57;;;;;;;26.25;10.15;;;;;;;;;;5114504;28;20028;-19
2020/12/23 05:01:22;;;;;;;22.15;10.43;;;;;;;;;;5116004;28;20039;-18
2020/12/23 05:03:48;;;;;;;23.20;10.40;;;;;;;;;;5115749;28;20633;-19
2020/12/23 05:06:14;;;;;;;22.25;9.73;;;;;;;;;;5115821;28;20024;-19
2020/12/23 05:08:40;;;;;;;28.10;10.50;;;;;;;;;;5115764;28;20028;-19
2020/12/23 05:11:08;;;;;;;28.30;11.68;;;;;;;;;;5115960;28;20058;-18
2020/12/23 05:13:34;;;;;;;23.75;9.35;;;;;;;;;;5115738;28;20034;-19
2020/12/23 05:15:59;;;;;;;21.80;9.52;;;;;;;;;;5115605;27;20102;-19
2020/12/23 05:18:35;;;;;;;21.67;8.80;;;;;;;;;;5115876;28;20028;-19
2020/12/23 05:21:01;;;;;;;26.58;10.13;;;;;;;;;;5115478;27;20031;-19
2020/12/23 05:23:31;;;;;;;29.42;9.38;;;;;;;;;;5115579;28;20015;-19
2020/12/23 05:26:03;;;;;;;25.70;10.38;;;;;;;;;;5115681;28;20427;-18
2020/12/23 05:28:28;;;;;;;22.85;10.70;;;;;;;;;;5114402;28;20027;-19
2020/12/23 05:30:54;;;;;;;24.92;11.63;;;;;;;;;;5115454;28;20489;-19
2020/12/23 05:33:19;;;;;;;28.02;11.60;;;;;;;;;;5115622;28;20527;-20
2020/12/23 05:35:45;;;;;;;28.23;11.65;;;;;;;;;;5115184;28;20133;-19
2020/12/23 05:38:10;;;;;;;25.95;10.27;;;;;;;;;;5115192;28;20438;-18
2020/12/23 05:40:36;;;;;;;21.75;10.35;;;;;;;;;;5115151;28;20019;-19
2020/12/23 05:43:01;;;;;;;27.05;10.75;;;;;;;;;;5114993;28;20352;-19
2020/12/23 05:45:27;;;;;;;24.25;11.18;;;;;;;;;;5115433;28;20046;-19
2020/12/23 05:47:53;;;;;;;25.77;11.45;;;;;;;;;;5114417;28;20020;-19
2020/12/23 05:50:18;;;;;;;22.52;10.52;;;;;;;;;;5114693;28;20128;-18
2020/12/23 05:52:45;;;;;;;30.52;11.88;;;;;;;;;;5114800;28;20431;-19
2020/12/23 05:55:15;;;;;;;25.83;10.98;;;;;;;;;;5115254;28;20400;-18
2020/12/23 05:57:40;;;;;;;26.77;11.85;;;;;;;;;;5114712;28;20470;-19
2020/12/23 06:00:06;;;;;;;33.85;13.05;;;;;;;;;;5113478;28;20024;-19
2020/12/23 06:02:46;;;;;;;30.30;12.45;;;;;;;;;;5115089;28;20038;-19
2020/12/23 06:05:14;;;;;;;34.40;13.55;;;;;;;;;;5114815;28;20489;-19
2020/12/23 06:07:42;;;;;;;36.72;13.82;;;;;;;;;;5114780;28;20023;-19
2020/12/23 06:10:10;;;;;;;38.05;13.35;;;;;;;;;;5114504;28;20024;-19
2020/12/23 06:12:38;;;;;;;33.30;12.88;;;;;;;;;;5114567;28;20069;-18
2020/12/23 06:15:11;;;;;;;28.88;12.48;;;;;;;;;;5114612;28;20363;-19
2020/12/23 06:17:38;;;;;;;33.70;13.40;;;;;;;;;;5114688;28;20088;-19
2020/12/23 06:20:05;;;;;;;31.63;12.82;;;;;;;;;;5114445;28;20047;-19
2020/12/23 06:22:33;;;;;;;36.88;13.85;;;;;;;;;;5113232;28;20032;-19
2020/12/23 06:25:00;;;;;;;33.03;13.20;;;;;;;;;;5114444;28;20077;-19
2020/12/23 06:27:31;;;;;;;29.75;13.27;;;;;;;;;;5112994;28;20027;-19
2020/12/23 06:29:56;;;;;;;36.67;13.57;;;;;;;;;;5114087;28;20033;-18
2020/12/23 06:32:25;;;;;;;29.17;13.02;;;;;;;;;;5114197;28;20023;-18
2020/12/23 06:34:57;;;;;;;32.00;12.98;;;;;;;;;;5114324;28;20024;-18
2020/12/23 06:37:25;;;;;;;26.13;12.00;;;;;;;;;;5113149;28;20111;-19
2020/12/23 06:39:51;;;;;;;29.42;11.32;;;;;;;;;;5113927;28;20042;-19
2020/12/23 06:42:16;;;;;;;27.50;11.40;;;;;;;;;;5114007;28;20028;-18
2020/12/23 06:44:41;;;;;;;26.90;11.60;;;;;;;;;;5113821;28;20042;-19
2020/12/23 06:47:16;;;;;;;23.23;10.25;;;;;;;;;;5113866;28;20028;-18
2020/12/23 06:49:58;;;;;;;28.60;12.75;;;;;;;;;;5113682;28;20030;-20
2020/12/23 06:52:24;;;;;;;25.60;11.60;;;;;;;;;;5113746;28;20642;-19
2020/12/23 06:54:57;;;;;;;30.25;12.93;;;;;;;;;;5113621;28;20018;-18
2020/12/23 06:57:38;;;;;;;27.40;12.32;;;;;;;;;;5113665;28;20061;-18
2020/12/23 07:00:13;;;;;;;23.85;10.40;;;;;;;;;;5111276;28;20462;-19
2020/12/23 07:02:44;;;;;;;29.02;12.05;;;;;;;;;;5113503;28;20031;-18
2020/12/23 07:05:11;;;;;;;31.33;12.27;;;;;;;;;;5113612;28;20028;-18
2020/12/23 07:07:37;;;;;;;31.70;12.68;;;;;;;;;;5113469;28;20016;-19
2020/12/23 07:10:08;;;;;;;30.75;13.38;;;;;;;;;;5113308;28;20028;-18
2020/12/23 07:12:34;;;;;;;29.10;13.32;;;;;;;;;;5113495;28;20584;-19
2020/12/23 07:15:09;;;;;;;36.92;12.40;;;;;;;;;;5111921;28;20114;-19
2020/12/23 07:17:36;;;;;;;30.77;12.40;;;;;;;;;;4755670;28;10000516;-18
2020/12/23 07:20:06;;;;;;;29.25;11.57;;;;;;;;;;5109736;28;20048;-19
2020/12/23 07:22:32;;;;;;;31.75;13.90;;;;;;;;;;5110089;28;20035;-21
2020/12/23 07:25:00;;;;;;;26.88;12.68;;;;;;;;;;5094996;28;20027;-19
2020/12/23 07:27:27;;;;;;;26.10;12.70;;;;;;;;;;5089280;28;20035;-19
2020/12/23 07:30:03;;;;;;;25.88;11.18;;;;;;;;;;5088427;28;20032;-18
2020/12/23 07:32:29;;;;;;;29.33;12.82;;;;;;;;;;5100575;28;20130;-19
2020/12/23 07:34:55;;;;;;;24.92;11.18;;;;;;;;;;5109216;28;20102;-17
2020/12/23 07:37:20;;;;;;;22.73;11.27;;;;;;;;;;5109335;28;20073;-19
2020/12/23 07:39:48;;;;;;;28.35;12.43;;;;;;;;;;5109696;28;20565;-17
2020/12/23 07:42:17;;;;;;;33.83;13.68;;;;;;;;;;5101848;27;20073;-19
2020/12/23 07:44:52;;;;;;;40.97;15.85;;;;;;;;;;5109440;28;20023;-19
2020/12/23 07:47:24;;;;;;;35.83;14.20;;;;;;;;;;5107944;28;20453;-17
2020/12/23 07:49:59;;;;;;;33.13;13.37;;;;;;;;;;5108845;28;20268;-19
2020/12/23 07:52:25;;;;;;;28.38;12.65;;;;;;;;;;5109175;28;20039;-20
2020/12/23 07:54:50;;;;;;;32.47;13.48;;;;;;;;;;5108713;28;20019;-19
2020/12/23 07:57:36;;;;;;;29.52;12.18;;;;;;;;;;5109308;28;20451;-19
2020/12/23 08:00:09;;;;;;;32.53;12.18;;;;;;;;;;5108705;28;20043;-19
2020/12/23 08:02:40;;;;;;;23.25;11.30;;;;;;;;;;5109053;28;20509;-18
2020/12/23 08:05:07;;;;;;;27.35;11.95;;;;;;;;;;5109003;28;20116;-19
2020/12/23 08:07:36;;;;;;;25.90;11.57;;;;;;;;;;5109278;28;20378;-18
2020/12/23 08:10:12;;;;;;;31.75;13.40;;;;;;;;;;5107681;28;20103;-19
2020/12/23 08:12:39;;;;;;;34.55;14.27;;;;;;;;;;5111738;28;20040;-19
2020/12/23 08:15:11;;;;;;;30.13;13.43;;;;;;;;;;5111800;28;20068;-19
2020/12/23 08:17:37;;;;;;;28.13;11.77;;;;;;;;;;5104193;28;20024;-19
2020/12/23 08:20:04;;;;;;;31.30;12.20;;;;;;;;;;5092979;28;20378;-20
2020/12/23 08:22:29;;;;;;;32.28;13.30;;;;;;;;;;5092915;28;20028;-19
2020/12/23 08:25:01;;;;;;;37.13;14.63;;;;;;;;;;5092843;28;20016;-20
2020/12/23 08:27:37;;;;;;;32.45;13.43;;;;;;;;;;5093049;28;20036;-20
2020/12/23 08:30:07;;;;;;;31.77;13.65;;;;;;;;;;5092485;28;20032;-23
2020/12/23 08:32:34;;;;;;;31.42;12.57;;;;;;;;;;5092851;28;20433;-19
2020/12/23 08:35:00;;;;;;;26.17;11.55;;;;;;;;;;5110258;28;20076;-20
2020/12/23 08:37:26;;;;;;;32.20;12.18;;;;;;;;;;5112736;28;20017;-20
2020/12/23 08:39:52;;;;;;;30.38;11.77;;;;;;;;;;5112832;28;20020;-20
2020/12/23 08:42:18;;;;;;;32.28;13.70;;;;;;;;;;5110791;28;20015;-19
2020/12/23 08:44:44;;;;;;;37.25;14.15;;;;;;;;;;5112536;28;20053;-20
2020/12/23 08:47:10;;;;;;;34.38;15.48;;;;;;;;;;5104336;27;20023;-19
2020/12/23 08:49:44;;;;;;;46.25;16.55;;;;;;;;;;5092235;28;20054;-20
2020/12/23 08:52:16;;;;;;;40.70;14.07;;;;;;;;;;5092350;28;20044;-20
2020/12/23 08:54:42;;;;;;;45.07;12.93;;;;;;;;;;5091868;28;20038;-19
2020/12/23 08:57:09;;;;;;;37.75;14.85;;;;;;;;;;5091950;28;20024;-19
2020/12/23 08:59:40;;;;;;;37.45;13.60;;;;;;;;;;5091808;28;20032;-20
2020/12/23 09:02:10;;;;;;;71.97;33.50;;;;;;;;;;5090699;28;20039;-19
2020/12/23 09:04:35;;;;;;;30.25;12.82;;;;;;;;;;5092076;28;20070;-19
2020/12/23 09:07:01;;;;;;;31.05;11.52;;;;;;;;;;5073632;28;20425;-19
2020/12/23 09:09:26;;;;;;;29.70;12.23;;;;;;;;;;5090962;28;20013;-20
2020/12/23 09:11:53;;;;;;;29.70;10.43;;;;;;;;;;5092002;28;20448;-19
2020/12/23 09:14:23;;;;;;;30.88;12.80;;;;;;;;;;5092224;28;20016;-20
2020/12/23 09:17:01;;;;;;;36.58;13.65;;;;;;;;;;5093908;28;20066;-18
2020/12/23 09:19:45;;;;;;;35.75;12.80;;;;;;;;;;5112621;28;20478;-20
2020/12/23 09:22:12;;;;;;;38.35;14.70;;;;;;;;;;5112137;28;20023;-19
2020/12/23 09:24:38;;;;;;;34.65;14.70;;;;;;;;;;5111079;28;20065;-20
2020/12/23 09:27:22;;;;;;;42.70;15.10;;;;;;;;;;5111962;28;20040;-20
2020/12/23 09:29:48;;;;;;;32.88;13.45;;;;;;;;;;5111531;28;20024;-19
2020/12/23 09:32:13;;;;;;;40.70;16.17;;;;;;;;;;5112004;28;20039;-19
2020/12/23 09:34:39;;;;;;;38.60;14.70;;;;;;;;;;5109150;28;20493;-18
2020/12/23 09:37:07;;;;;;;43.17;16.52;;;;;;;;;;5091446;28;20031;-18
2020/12/23 09:39:37;;;;;;;39.08;16.33;;;;;;;;;;5091666;28;20040;-19
2020/12/23 09:42:06;;;;;;;39.70;15.35;;;;;;;;;;5090110;28;20062;-18
2020/12/23 09:44:33;;;;;;;45.58;17.50;;;;;;;;;;5090055;28;20024;-19
2020/12/23 09:46:59;;;;;;;38.83;14.63;;;;;;;;;;5091336;28;20024;-20
2020/12/23 09:49:25;;;;;;;39.75;15.05;;;;;;;;;;5091385;28;20755;-21
2020/12/23 09:51:52;;;;;;;29.02;9.82;;;;;;;;;;5090946;28;20663;-19
2020/12/23 09:54:17;;;;;;;27.83;11.02;;;;;;;;;;5091057;28;20043;-17
2020/12/23 09:56:53;;;;;;;34.97;11.73;;;;;;;;;;5091274;28;20024;-19
2020/12/23 09:59:19;;;;;;;30.02;12.05;;;;;;;;;;5106977;28;20023;-18
2020/12/23 10:01:46;;;;;;;42.55;15.55;;;;;;;;;;5111804;28;20023;-19
2020/12/23 10:04:12;;;;;;;36.35;13.35;;;;;;;;;;5111264;28;20024;-19
2020/12/23 10:06:37;;;;;;;39.03;16.40;;;;;;;;;;5110980;28;20026;-19
2020/12/23 10:09:03;;;;;;;35.78;14.30;;;;;;;;;;5111417;28;20095;-18
2020/12/23 10:11:29;;;;;;;38.90;14.63;;;;;;;;;;5111300;28;20115;-19
2020/12/23 10:13:55;;;;;;;42.65;13.68;;;;;;;;;;5109732;28;20485;-20
2020/12/23 10:16:21;;;;;;;38.95;13.75;;;;;;;;;;5110941;28;20024;-19
2020/12/23 10:18:46;;;;;;;41.05;15.73;;;;;;;;;;5109546;28;20035;-18
2020/12/23 10:21:12;;;;;;;40.95;17.52;;;;;;;;;;5111166;28;20016;-19
2020/12/23 10:23:37;;;;;;;41.42;15.50;;;;;;;;;;5111216;28;20394;-24
2020/12/23 10:26:03;;;;;;;32.92;12.57;;;;;;;;;;5109318;28;20083;-20
2020/12/23 10:28:29;;;;;;;48.08;16.85;;;;;;;;;;5110851;28;20593;-20
2020/12/23 10:30:54;;;;;;;39.28;15.15;;;;;;;;;;5110561;28;20035;-21
2020/12/23 10:33:20;;;;;;;33.55;13.85;;;;;;;;;;5109331;28;20031;-19
2020/12/23 10:35:45;;;;;;;38.97;14.15;;;;;;;;;;5098236;28;20105;-19
2020/12/23 10:38:11;;;;;;;43.17;16.02;;;;;;;;;;5090504;28;20028;-19
2020/12/23 10:40:36;;;;;;;43.00;14.30;;;;;;;;;;5090365;28;20020;-19
2020/12/23 10:43:02;;;;;;;39.30;14.68;;;;;;;;;;5088902;28;20024;-19
2020/12/23 10:45:28;;;;;;;43.58;16.90;;;;;;;;;;5088992;28;20111;-19
2020/12/23 10:47:54;;;;;;;42.25;16.13;;;;;;;;;;5090213;28;20146;-19
2020/12/23 10:50:19;;;;;;;39.28;15.65;;;;;;;;;;5090050;28;20047;-19
2020/12/23 10:52:45;;;;;;;48.63;17.88;;;;;;;;;;5089775;28;20024;-20
2020/12/23 10:55:10;;;;;;;46.38;18.55;;;;;;;;;;5071716;28;20020;-20
2020/12/23 10:57:37;;;;;;;39.88;15.30;;;;;;;;;;5090155;28;20455;-19
2020/12/23 11:00:04;;;;;;;46.72;17.73;;;;;;;;;;5089974;28;20020;-20
2020/12/23 11:02:29;;;;;;;47.40;17.33;;;;;;;;;;5090083;28;20086;-20
2020/12/23 11:04:55;;;;;;;44.50;16.35;;;;;;;;;;5089679;28;20052;-20
2020/12/23 11:07:20;;;;;;;51.97;18.27;;;;;;;;;;5088589;28;20192;-20
2020/12/23 11:09:46;;;;;;;52.05;18.25;;;;;;;;;;5089889;28;20110;-20
2020/12/23 11:12:11;;;;;;;40.95;16.67;;;;;;;;;;5090066;28;20539;-19
2020/12/23 11:14:37;;;;;;;44.90;17.60;;;;;;;;;;5089860;28;20614;-20
2020/12/23 11:17:03;;;;;;;44.13;19.30;;;;;;;;;;5088872;28;20404;-20
2020/12/23 11:19:28;;;;;;;43.70;17.25;;;;;;;;;;5089474;28;20016;-17
2020/12/23 11:21:54;;;;;;;52.20;16.90;;;;;;;;;;5088236;28;20031;-17
2020/12/23 11:24:20;;;;;;;49.17;18.25;;;;;;;;;;5089784;28;20027;-16
2020/12/23 11:26:45;;;;;;;43.58;16.77;;;;;;;;;;5089475;28;20115;-18
2020/12/23 11:29:11;;;;;;;43.80;17.23;;;;;;;;;;5088159;28;20026;-18
2020/12/23 11:31:36;;;;;;;56.17;17.67;;;;;;;;;;5089551;28;20066;-18
2020/12/23 11:34:02;;;;;;;37.50;15.02;;;;;;;;;;5088266;28;20058;-17
2020/12/23 11:36:28;;;;;;;41.60;16.20;;;;;;;;;;5098714;28;20031;-18
2020/12/23 11:38:54;;;;;;;36.20;12.82;;;;;;;;;;5109204;28;20084;-20
2020/12/23 11:41:19;;;;;;;51.53;16.85;;;;;;;;;;5107267;28;20118;-18
2020/12/23 11:43:44;;;;;;;48.80;17.67;;;;;;;;;;5109276;28;20050;-19
2020/12/23 11:46:10;;;;;;;48.80;18.85;;;;;;;;;;5108607;28;20043;-18
2020/12/23 11:48:36;;;;;;;34.83;17.10;;;;;;;;;;5109129;28;20011;-18
2020/12/23 11:51:02;;;;;;;44.05;16.05;;;;;;;;;;5108976;28;20046;-17
2020/12/23 11:53:28;;;;;;;39.85;16.95;;;;;;;;;;5109138;28;20558;-18
2020/12/23 11:55:53;;;;;;;45.75;17.00;;;;;;;;;;5109225;28;20118;-18
2020/12/23 11:58:19;;;;;;;48.15;18.30;;;;;;;;;;5109088;28;20016;-17
2020/12/23 12:00:44;;;;;;;43.97;17.58;;;;;;;;;;5109158;28;20031;-18
2020/12/23 12:03:10;;;;;;;50.65;19.67;;;;;;;;;;5107667;28;20077;-18
2020/12/23 12:05:36;;;;;;;46.42;17.27;;;;;;;;;;5108450;28;20107;-19
2020/12/23 12:08:07;;;;;;;40.35;15.80;;;;;;;;;;5097484;28;20013;-17
2020/12/23 12:10:32;;;;;;;47.10;16.42;;;;;;;;;;5088821;28;20020;-18
2020/12/23 12:12:59;;;;;;;44.75;17.30;;;;;;;;;;5097625;28;20098;-18
2020/12/23 12:15:24;;;;;;;43.60;16.77;;;;;;;;;;5109088;28;20028;-18
2020/12/23 12:17:50;;;;;;;47.33;18.65;;;;;;;;;;5108513;28;20031;-18
2020/12/23 12:20:18;;;;;;;42.67;18.02;;;;;;;;;;5109088;28;20062;-24
2020/12/23 12:22:44;;;;;;;44.03;16.42;;;;;;;;;;5107469;28;20035;-20
2020/12/23 12:25:12;;;;;;;42.00;17.02;;;;;;;;;;5088571;28;20394;-19
2020/12/23 12:27:37;;;;;;;39.13;15.77;;;;;;;;;;5089302;28;20051;-18
2020/12/23 12:30:03;;;;;;;36.30;15.20;;;;;;;;;;5086357;28;20487;-21
2020/12/23 12:32:28;;;;;;;35.90;15.90;;;;;;;;;;5088547;28;20110;-18
2020/12/23 12:34:54;;;;;;;40.05;16.20;;;;;;;;;;5092455;28;20390;-17
2020/12/23 12:37:19;;;;;;;35.63;15.73;;;;;;;;;;5088418;28;20028;-18
2020/12/23 12:39:45;;;;;;;44.50;17.00;;;;;;;;;;5088760;28;20024;-19
2020/12/23 12:42:11;;;;;;;40.78;16.63;;;;;;;;;;5088007;28;20023;-19
2020/12/23 12:44:36;;;;;;;44.60;16.17;;;;;;;;;;5086754;28;20020;-19
2020/12/23 12:47:02;;;;;;;44.33;17.75;;;;;;;;;;5088054;28;20020;-18
2020/12/23 12:49:27;;;;;;;38.83;16.55;;;;;;;;;;5087315;28;20020;-18
2020/12/23 12:51:53;;;;;;;49.30;18.67;;;;;;;;;;5104596;28;20055;-18
2020/12/23 12:54:19;;;;;;;47.33;18.17;;;;;;;;;;5106988;28;20019;-18
2020/12/23 12:56:44;;;;;;;53.67;18.60;;;;;;;;;;5107291;28;20062;-18
2020/12/23 12:59:10;;;;;;;42.90;17.15;;;;;;;;;;5097607;28;20081;-18
2020/12/23 13:01:36;;;;;;;38.35;18.23;;;;;;;;;;5092497;28;20016;-17
2020/12/23 13:04:02;;;;;;;42.65;19.10;;;;;;;;;;5092037;28;20035;-18
2020/12/23 13:06:27;;;;;;;46.88;18.60;;;;;;;;;;5090575;28;20103;-18
2020/12/23 13:08:53;;;;;;;44.05;17.48;;;;;;;;;;5092041;28;20405;-19
2020/12/23 13:11:19;;;;;;;45.67;17.55;;;;;;;;;;5091947;28;20044;-18
2020/12/23 13:13:45;;;;;;;45.55;19.33;;;;;;;;;;5091885;28;20092;-17
2020/12/23 13:16:11;;;;;;;46.17;17.75;;;;;;;;;;5091639;28;20894;-18
2020/12/23 13:18:36;;;;;;;42.65;17.08;;;;;;;;;;5090289;28;20118;-18
2020/12/23 13:21:02;;;;;;;46.55;17.23;;;;;;;;;;5091887;28;20094;-18
2020/12/23 13:23:27;;;;;;;43.33;18.08;;;;;;;;;;5091949;28;20122;-18
2020/12/23 13:25:52;;;;;;;41.00;16.40;;;;;;;;;;5091675;28;20024;-18
2020/12/23 13:28:18;;;;;;;45.75;18.30;;;;;;;;;;5091917;28;20386;-17
2020/12/23 13:30:43;;;;;;;44.75;16.20;;;;;;;;;;5090041;28;20432;-19
2020/12/23 13:33:09;;;;;;;37.80;16.15;;;;;;;;;;5091839;28;20466;-17
2020/12/23 13:35:34;;;;;;;39.88;15.90;;;;;;;;;;5100594;28;20024;-18
2020/12/23 13:37:59;;;;;;;41.22;16.38;;;;;;;;;;5110995;28;20074;-18
2020/12/23 13:40:25;;;;;;;43.33;17.27;;;;;;;;;;5112164;28;20020;-18
2020/12/23 13:42:50;;;;;;;44.00;18.33;;;;;;;;;;5110229;28;20043;-19
2020/12/23 13:45:16;;;;;;;41.35;16.83;;;;;;;;;;5111823;28;20034;-18
2020/12/23 13:47:41;;;;;;;39.40;16.25;;;;;;;;;;5110935;28;20038;-19
2020/12/23 13:50:07;;;;;;;50.60;18.40;;;;;;;;;;5111848;28;20067;-18
2020/12/23 13:52:32;;;;;;;44.00;16.52;;;;;;;;;;5109869;28;20383;-18
2020/12/23 13:54:58;;;;;;;38.63;15.60;;;;;;;;;;5111172;28;20031;-17
2020/12/23 13:57:24;;;;;;;40.10;15.30;;;;;;;;;;5111803;28;20039;-18
2020/12/23 13:59:49;;;;;;;41.25;16.73;;;;;;;;;;5111310;28;20100;-18
2020/12/23 14:02:15;;;;;;;42.08;16.63;;;;;;;;;;5111539;28;20027;-17
2020/12/23 14:04:41;;;;;;;41.83;16.23;;;;;;;;;;5111224;28;20023;-17
2020/12/23 14:07:06;;;;;;;35.88;16.08;;;;;;;;;;5111075;28;20474;-19
2020/12/23 14:09:32;;;;;;;40.22;14.85;;;;;;;;;;5109521;28;20027;-18
2020/12/23 14:11:57;;;;;;;31.95;13.18;;;;;;;;;;5111200;28;20063;-18
2020/12/23 14:14:23;;;;;;;33.58;14.38;;;;;;;;;;5111421;28;20059;-17
2020/12/23 14:16:48;;;;;;;29.33;12.50;;;;;;;;;;5110679;28;20049;-19